Time;durP1;ratioP1;P1;durP2;ratioP2;P2;SDS_P1;SDS_P2;PMS_P1;PMS_P2;Temp;Humidity;BMP_temperature;BMP_pressure;BME280_temperature;BME280_humidity;BME280_pressure;Samples;Min_cycle;Max_cycle;Signal;HPM_P1;HPM_P2
2023/06/06 00:00:24;;;;;;;9.93;6.88;;;;;;;;;;4986699;28;20527;-82
2023/06/06 00:02:50;;;;;;;12.70;8.25;;;;;;;;;;4972980;28;20049;-82
2023/06/06 00:05:17;;;;;;;11.52;7.55;;;;;;;;;;4984559;28;20260;-83
2023/06/06 00:07:44;;;;;;;10.38;7.45;;;;;;;;;;4968291;28;20099;-82
2023/06/06 00:10:11;;;;;;;12.65;8.43;;;;;;;;;;4972557;28;20127;-83
2023/06/06 00:12:37;;;;;;;11.43;7.30;;;;;;;;;;5006872;28;20073;-82
2023/06/06 00:15:05;;;;;;;9.27;7.05;;;;;;;;;;5006899;28;20077;-83
2023/06/06 00:17:31;;;;;;;13.25;7.50;;;;;;;;;;4973099;28;20046;-84
2023/06/06 00:19:58;;;;;;;14.35;7.45;;;;;;;;;;4989291;28;20057;-83
2023/06/06 00:22:24;;;;;;;15.32;7.95;;;;;;;;;;4989281;28;20104;-83
2023/06/06 00:24:50;;;;;;;13.93;7.85;;;;;;;;;;4972604;28;20085;-84
2023/06/06 00:27:16;;;;;;;10.63;7.72;;;;;;;;;;4988876;28;20503;-86
2023/06/06 00:29:42;;;;;;;11.43;7.55;;;;;;;;;;4972199;28;20053;-82
2023/06/06 00:32:08;;;;;;;11.80;7.25;;;;;;;;;;4985634;28;20535;-82
2023/06/06 00:34:34;;;;;;;10.77;7.30;;;;;;;;;;4969333;28;20056;-82
2023/06/06 00:37:00;;;;;;;10.48;6.78;;;;;;;;;;5006738;28;20624;-82
2023/06/06 00:39:26;;;;;;;11.60;7.78;;;;;;;;;;4988957;28;20062;-82
2023/06/06 00:41:52;;;;;;;9.30;6.70;;;;;;;;;;4988895;28;20050;-82
2023/06/06 00:44:19;;;;;;;15.63;8.38;;;;;;;;;;4988992;28;20729;-82
2023/06/06 00:46:45;;;;;;;10.27;7.30;;;;;;;;;;5006602;28;20099;-82
2023/06/06 00:49:11;;;;;;;12.13;7.20;;;;;;;;;;4982618;28;20057;-82
2023/06/06 00:51:38;;;;;;;10.90;6.85;;;;;;;;;;4984244;28;20041;-82
2023/06/06 00:54:06;;;;;;;13.32;7.35;;;;;;;;;;4972391;28;20388;-82
2023/06/06 00:56:34;;;;;;;11.43;7.20;;;;;;;;;;4972454;28;20046;-83
2023/06/06 00:59:01;;;;;;;14.43;8.23;;;;;;;;;;4980719;28;20515;-82
2023/06/06 01:01:28;;;;;;;14.20;8.18;;;;;;;;;;4988473;28;20511;-82
2023/06/06 01:03:56;;;;;;;11.50;7.45;;;;;;;;;;5006171;28;20052;-83
2023/06/06 01:06:22;;;;;;;11.35;7.07;;;;;;;;;;4985204;28;20086;-84
2023/06/06 01:08:48;;;;;;;9.50;6.93;;;;;;;;;;4958019;28;20070;-84
2023/06/06 01:11:20;;;;;;;10.13;6.68;;;;;;;;;;4974770;28;20057;-82
2023/06/06 01:13:52;;;;;;;11.23;6.45;;;;;;;;;;4992329;28;20046;-82
2023/06/06 01:16:20;;;;;;;9.13;6.95;;;;;;;;;;4974392;28;20034;-82
2023/06/06 01:18:48;;;;;;;11.82;7.47;;;;;;;;;;4976521;28;20037;-82
2023/06/06 01:21:14;;;;;;;11.43;7.25;;;;;;;;;;4975378;28;20123;-82
2023/06/06 01:23:43;;;;;;;12.73;8.57;;;;;;;;;;5008657;28;20526;-83
2023/06/06 01:26:12;;;;;;;10.32;6.90;;;;;;;;;;4990051;28;20054;-83
2023/06/06 01:28:38;;;;;;;12.15;8.07;;;;;;;;;;4991536;28;20065;-84
2023/06/06 01:31:05;;;;;;;11.55;7.50;;;;;;;;;;5009660;28;20125;-86
2023/06/06 01:33:31;;;;;;;11.50;7.63;;;;;;;;;;5009735;28;20065;-82
2023/06/06 01:36:07;;;;;;;9.18;6.63;;;;;;;;;;4991804;28;20522;-83
2023/06/06 01:38:37;;;;;;;16.30;7.03;;;;;;;;;;5005868;28;20050;-84
2023/06/06 01:41:03;;;;;;;10.30;6.97;;;;;;;;;;5001961;28;20042;-84
2023/06/06 01:43:30;;;;;;;10.82;7.30;;;;;;;;;;4984668;28;20096;-82
2023/06/06 01:45:56;;;;;;;10.55;6.72;;;;;;;;;;4988027;28;20129;-84
2023/06/06 01:48:24;;;;;;;13.60;7.68;;;;;;;;;;5008958;28;20141;-82
2023/06/06 01:50:50;;;;;;;11.20;7.35;;;;;;;;;;4974758;28;20038;-84
2023/06/06 01:53:16;;;;;;;12.10;7.18;;;;;;;;;;4989201;28;20088;-82
2023/06/06 01:55:42;;;;;;;13.93;7.70;;;;;;;;;;5009152;28;20084;-82
2023/06/06 01:58:08;;;;;;;9.05;6.53;;;;;;;;;;4991780;28;20049;-85
2023/06/06 02:00:35;;;;;;;12.00;7.45;;;;;;;;;;5009235;28;20048;-83
2023/06/06 02:03:01;;;;;;;9.95;7.15;;;;;;;;;;4991193;28;20100;-82
2023/06/06 02:05:27;;;;;;;9.88;6.93;;;;;;;;;;4974519;28;20073;-82
2023/06/06 02:07:53;;;;;;;10.35;7.00;;;;;;;;;;5008850;28;20861;-84
2023/06/06 02:10:20;;;;;;;10.93;6.68;;;;;;;;;;4974256;28;20049;-82
2023/06/06 02:12:46;;;;;;;10.73;6.68;;;;;;;;;;4990835;28;20034;-83
2023/06/06 02:15:13;;;;;;;10.50;7.68;;;;;;;;;;4987615;28;20815;-82
2023/06/06 02:17:40;;;;;;;13.63;7.32;;;;;;;;;;5002422;28;20041;-82
2023/06/06 02:20:07;;;;;;;9.32;7.10;;;;;;;;;;4973079;28;20045;-82
2023/06/06 02:22:33;;;;;;;13.77;7.55;;;;;;;;;;4970983;28;20042;-83
2023/06/06 02:25:03;;;;;;;11.68;7.07;;;;;;;;;;4970432;28;20411;-84
2023/06/06 02:27:30;;;;;;;10.50;7.63;;;;;;;;;;4987781;28;20056;-83
2023/06/06 02:29:56;;;;;;;11.10;7.22;;;;;;;;;;4990380;28;20073;-82
2023/06/06 02:32:23;;;;;;;13.85;7.28;;;;;;;;;;4972696;28;20046;-82
2023/06/06 02:34:50;;;;;;;10.07;6.47;;;;;;;;;;4974261;28;20053;-81
2023/06/06 02:37:16;;;;;;;15.55;7.25;;;;;;;;;;4975341;28;20065;-85
2023/06/06 02:39:42;;;;;;;11.00;7.32;;;;;;;;;;4971230;28;20096;-82
2023/06/06 02:42:08;;;;;;;13.82;7.53;;;;;;;;;;4978140;28;20051;-82
2023/06/06 02:44:34;;;;;;;16.25;7.45;;;;;;;;;;4983589;28;20053;-84
2023/06/06 02:47:00;;;;;;;15.82;7.55;;;;;;;;;;4989201;28;20074;-82
2023/06/06 02:49:29;;;;;;;10.75;7.10;;;;;;;;;;4982817;28;20058;-83
2023/06/06 02:51:55;;;;;;;11.40;7.55;;;;;;;;;;4967813;28;20126;-84
2023/06/06 02:54:21;;;;;;;12.65;7.47;;;;;;;;;;4975491;28;20294;-82
2023/06/06 02:56:47;;;;;;;10.93;6.65;;;9.60;99.90;;;;;;4987198;28;20038;-82
2023/06/06 02:59:13;;;;;;;11.07;6.65;;;;;;;;;;4971309;28;20515;-82
2023/06/06 03:01:44;;;;;;;14.13;7.07;;;;;;;;;;4971200;28;20070;-83
2023/06/06 03:04:11;;;;;;;14.02;6.85;;;;;;;;;;4961616;28;20042;-83
2023/06/06 03:06:39;;;;;;;11.35;7.07;;;;;;;;;;4987278;28;20056;-84
2023/06/06 03:09:05;;;;;;;10.38;7.10;;;;;;;;;;4987636;28;20145;-82
2023/06/06 03:11:31;;;;;;;13.68;7.63;;;;;;;;;;4986832;28;20557;-85
2023/06/06 03:13:58;;;;;;;11.45;6.60;;;;;;;;;;4986807;28;20042;-82
2023/06/06 03:16:28;;;;;;;10.85;6.93;;;;;;;;;;4988499;28;20046;-82
2023/06/06 03:18:54;;;;;;;15.05;7.70;;;;;;;;;;4987149;28;20038;-82
2023/06/06 03:21:20;;;;;;;10.07;6.25;;;;;;;;;;4988418;28;20053;-84
2023/06/06 03:23:46;;;;;;;11.50;6.65;;;;;;;;;;4969392;28;20077;-83
2023/06/06 03:26:12;;;;;;;15.48;6.95;;;;;;;;;;4970354;28;20141;-83
2023/06/06 03:28:38;;;;;;;11.00;7.53;;;;;;;;;;4980231;28;20042;-82
2023/06/06 03:31:08;;;;;;;11.05;7.82;;;;;;;;;;4987157;28;20399;-82
2023/06/06 03:33:35;;;;;;;11.48;7.50;;;;;;;;;;4970266;28;20093;-82
2023/06/06 03:36:02;;;;;;;10.88;7.03;;;;;;;;;;4987415;28;20045;-82
2023/06/06 03:38:29;;;;;;;13.30;7.55;;;;;;;;;;4989613;28;20046;-82
2023/06/06 03:40:55;;;;;;;12.60;7.53;;;;;;;;;;5007145;28;20423;-84
2023/06/06 03:43:21;;;;;;;11.25;7.10;;;;;;;;;;4989729;28;20041;-82
2023/06/06 03:45:47;;;;;;;12.70;7.32;;;;;;;;;;4989686;28;20042;-85
2023/06/06 03:48:13;;;;;;;14.93;7.65;;;;;;;;;;4973123;28;20092;-83
2023/06/06 03:50:40;;;;;;;17.10;8.35;;;;;;;;;;4985866;28;20047;-82
2023/06/06 03:53:05;;;;;;;12.13;7.38;;;;;;;;;;4982773;28;20409;-82
2023/06/06 03:55:34;;;;;;;17.90;7.90;;;;;;;;;;4991271;28;20038;-84
2023/06/06 03:58:01;;;;;;;12.63;7.07;;;;;;;;;;4989020;28;20038;-82
2023/06/06 04:00:27;;;;;;;15.05;7.90;;;;;;;;;;4986007;28;20096;-83
2023/06/06 04:02:53;;;;;;;16.80;8.68;;;;;;;;;;5006611;28;20083;-82
2023/06/06 04:05:19;;;;;;;13.43;7.43;;;;;;;;;;4986476;28;20042;-82
2023/06/06 04:07:45;;;;;;;16.10;8.68;;;;;;;;;;4988579;28;20095;-82
2023/06/06 04:10:11;;;;;;;14.65;7.03;;;;;;;;;;5005428;28;20042;-82
2023/06/06 04:12:39;;;;;;;12.82;8.20;;;;;;;;;;4972682;28;20059;-82
2023/06/06 04:15:05;;;;;;;10.52;7.15;;;;;;;;;;4988787;28;20460;-82
2023/06/06 04:17:31;;;;;;;14.30;8.10;;;;;;;;;;4988289;28;20033;-82
2023/06/06 04:19:57;;;;;;;13.52;8.05;;;;;;;;;;4968189;28;20084;-82
2023/06/06 04:22:23;;;;;;;14.68;7.38;;;;;;;;;;4969777;28;20089;-83
2023/06/06 04:24:50;;;;;;;10.95;7.53;;;;;;;;;;4985450;28;20092;-83
2023/06/06 04:27:17;;;;;;;15.07;7.97;;;;;;;;;;5003962;28;20125;-86
2023/06/06 04:29:43;;;;;;;13.80;7.18;;;;;;;;;;4975310;28;20102;-84
2023/06/06 04:32:10;;;;;;;15.00;7.85;;;;;;;;;;4976419;28;20046;-83
2023/06/06 04:34:41;;;;;;;20.80;8.35;;;;;;;;;;4979464;28;20057;-84
2023/06/06 04:37:08;;;;;;;13.65;7.72;;;;;;;;;;4982545;28;20065;-82
2023/06/06 04:39:35;;;;;;;14.10;8.13;;;;;;;;;;4988303;28;20046;-85
2023/06/06 04:42:05;;;;;;;14.13;7.40;;;;;;;;;;4982425;28;20104;-83
2023/06/06 04:44:34;;;;;;;14.77;7.45;;;;;;;;;;4990000;28;20496;-85
2023/06/06 04:47:01;;;;;;;9.88;7.13;;;;;;;;;;4982120;28;20053;-82
2023/06/06 04:49:38;;;;;;;13.43;7.78;;;;;;;;;;4960111;28;20499;-83
2023/06/06 04:52:14;;;;;;;15.15;8.50;;;;;;;;;;4975794;28;20040;-82
2023/06/06 04:54:41;;;;;;;12.55;7.22;;;;;;;;;;4980098;28;20038;-82
2023/06/06 04:57:08;;;;;;;13.25;7.32;;;;;;;;;;5007370;28;20069;-84
2023/06/06 04:59:35;;;;;;;11.68;7.05;;;;;;;;;;4985288;28;20046;-82
2023/06/06 05:02:06;;;;;;;14.07;6.80;;;;;;;;;;4975883;28;20042;-84
2023/06/06 05:04:32;;;;;;;14.32;7.90;;;;;;;;;;5004468;28;20136;-83
2023/06/06 05:06:59;;;;;;;10.52;5.97;;;;;;;;;;4975785;28;20046;-83
2023/06/06 05:09:25;;;;;;;10.98;6.07;;;;;;;;;;5007689;28;20054;-83
2023/06/06 05:11:52;;;;;;;12.02;7.40;;;;;;;;;;4973042;28;20487;-83
2023/06/06 05:14:23;;;;;;;8.98;5.60;;;;;;;;;;4994431;28;20050;-83
2023/06/06 05:16:51;;;;;;;16.77;6.28;;;;;;;;;;4986772;28;20563;-87
2023/06/06 05:19:17;;;;;;;16.02;5.85;;;;;;;;;;4987979;28;20621;-83
2023/06/06 05:21:43;;;;;;;10.57;4.90;;;15.20;99.90;;;;;;4969543;28;20050;-82
2023/06/06 05:24:09;;;;;;;11.27;6.15;;;;;;;;;;4987625;28;20042;-83
2023/06/06 05:26:35;;;;;;;9.50;5.88;;;15.70;99.90;;;;;;4984984;28;20121;-82
2023/06/06 05:29:01;;;;;;;7.65;5.05;;;;;;;;;;4976585;28;20037;-83
2023/06/06 05:31:27;;;;;;;9.18;5.20;;;;;;;;;;4971851;28;20050;-86
2023/06/06 05:33:53;;;;;;;10.65;5.35;;;16.50;99.90;;;;;;4971346;28;20635;-83
2023/06/06 05:36:19;;;;;;;12.32;5.90;;;;;;;;;;4991306;28;20073;-83
2023/06/06 05:38:45;;;;;;;11.13;4.53;;;17.00;99.90;;;;;;4990537;28;20038;-83
2023/06/06 05:41:12;;;;;;;10.13;4.93;;;;;;;;;;4997766;28;20046;-84
2023/06/06 05:43:38;;;;;;;7.88;4.60;;;;;;;;;;4984787;28;20057;-83
2023/06/06 05:46:04;;;;;;;10.38;4.88;;;;;;;;;;4989662;28;20140;-84
2023/06/06 05:48:30;;;;;;;8.55;4.53;;;;;;;;;;5004526;28;20121;-84
2023/06/06 05:50:57;;;;;;;10.70;4.50;;;;;;;;;;4986733;28;20046;-83
2023/06/06 05:53:23;;;;;;;9.98;4.90;;;;;;;;;;4975046;28;20041;-84
2023/06/06 05:55:49;;;;;;;11.23;4.72;;;17.60;99.90;;;;;;4987763;28;20594;-85
2023/06/06 05:58:15;;;;;;;10.93;3.80;;;;;;;;;;4984270;28;20034;-85
2023/06/06 06:00:42;;;;;;;10.18;4.72;;;;;;;;;;4991424;28;20046;-83
2023/06/06 06:03:08;;;;;;;10.15;4.45;;;18.70;99.90;;;;;;4973914;28;20048;-83
2023/06/06 06:05:34;;;;;;;10.50;4.38;;;18.90;99.90;;;;;;4963324;28;20049;-83
2023/06/06 06:08:01;;;;;;;14.27;5.03;;;19.20;99.90;;;;;;4987738;28;20042;-85
2023/06/06 06:10:27;;;;;;;9.82;3.92;;;19.10;99.90;;;;;;4975462;28;20133;-86
2023/06/06 06:12:53;;;;;;;10.77;3.80;;;19.00;99.90;;;;;;4975810;28;20048;-83
2023/06/06 06:15:19;;;;;;;9.82;3.72;;;19.20;99.90;;;;;;4999927;28;20041;-83
2023/06/06 06:17:45;;;;;;;10.55;3.97;;;19.30;99.90;;;;;;4975538;28;20041;-84
2023/06/06 06:20:13;;;;;;;10.10;3.42;;;19.20;99.90;;;;;;4971049;28;20105;-87
2023/06/06 06:22:39;;;;;;;15.38;4.25;;;19.20;99.90;;;;;;4971456;28;20511;-84
2023/06/06 06:25:08;;;;;;;8.77;3.75;;;19.90;99.90;;;;;;4995795;28;20050;-86
2023/06/06 06:27:37;;;;;;;7.95;3.63;;;19.30;99.90;;;;;;4985990;28;20077;-84
2023/06/06 06:30:04;;;;;;;10.13;4.22;;;19.50;99.90;;;;;;4987343;28;20046;-84
2023/06/06 06:32:31;;;;;;;10.00;3.72;;;19.70;99.90;;;;;;4989311;28;20038;-84
2023/06/06 06:34:57;;;;;;;11.48;4.55;;;19.80;99.90;;;;;;4982925;28;20035;-84
2023/06/06 06:37:23;;;;;;;9.68;4.40;;;19.40;99.90;;;;;;4984510;28;20149;-86
2023/06/06 06:39:49;;;;;;;10.65;4.28;;;19.00;99.90;;;;;;4980970;28;20568;-83
2023/06/06 06:42:15;;;;;;;11.60;4.20;;;18.60;99.90;;;;;;4998850;28;20153;-84
2023/06/06 06:44:41;;;;;;;10.23;4.55;;;;;;;;;;4973893;28;20057;-87
2023/06/06 06:47:06;;;;;;;13.85;4.93;;;17.90;99.90;;;;;;4984023;28;20096;-84
2023/06/06 06:49:32;;;;;;;10.55;4.43;;;;;;;;;;4962542;28;20045;-84
2023/06/06 06:52:00;;;;;;;14.50;5.28;;;;;;;;;;4992342;28;20411;-85
2023/06/06 06:54:26;;;;;;;9.20;4.47;;;;;;;;;;4989008;28;20045;-84
2023/06/06 06:56:54;;;;;;;11.30;4.55;;;16.80;99.90;;;;;;4971769;28;20049;-84
2023/06/06 06:59:22;;;;;;;9.00;4.32;;;16.80;99.90;;;;;;5002018;28;20038;-83
2023/06/06 07:01:49;;;;;;;13.85;5.88;;;;;;;;;;4967119;28;20062;-84
2023/06/06 07:04:19;;;;;;;10.77;6.32;;;16.50;99.90;;;;;;5000366;28;20037;-83
2023/06/06 07:06:46;;;;;;;11.57;5.32;;;;;;;;;;4969312;28;20045;-83
2023/06/06 07:09:13;;;;;;;11.15;4.70;;;;;;;;;;4985509;28;20045;-85
2023/06/06 07:11:39;;;;;;;10.27;5.85;;;;;;;;;;4970055;28;20046;-84
2023/06/06 07:14:05;;;;;;;10.77;5.20;;;;;;;;;;4974777;28;20042;-84
2023/06/06 07:16:31;;;;;;;12.13;5.22;;;;;;;;;;4983174;28;20048;-83
2023/06/06 07:18:57;;;;;;;12.48;5.95;;;;;;;;;;4965928;28;20419;-86
2023/06/06 07:21:25;;;;;;;11.05;5.35;;;;;;;;;;4973316;28;20060;-85
2023/06/06 07:23:51;;;;;;;9.60;5.57;;;;;;;;;;4971284;28;20046;-83
2023/06/06 07:26:19;;;;;;;10.05;5.65;;;;;;;;;;4988809;28;20129;-85
2023/06/06 07:28:46;;;;;;;14.10;6.15;;;;;;;;;;4979106;28;20120;-83
2023/06/06 07:31:12;;;;;;;12.07;5.85;;;;;;;;;;4986020;28;20145;-83
2023/06/06 07:33:38;;;;;;;11.70;5.43;;;;;;;;;;4983273;28;20046;-84
2023/06/06 07:36:05;;;;;;;9.68;4.50;;;16.20;99.90;;;;;;4964601;28;20096;-83
2023/06/06 07:38:30;;;;;;;13.38;5.30;;;16.20;99.90;;;;;;4960443;28;20038;-83
2023/06/06 07:40:56;;;;;;;19.10;5.75;;;;;;;;;;4976956;28;20393;-84
2023/06/06 07:43:22;;;;;;;12.13;4.63;;;;;;;;;;4972569;28;20046;-86
2023/06/06 07:45:48;;;;;;;9.43;5.13;;;16.40;99.90;;;;;;4974389;28;20535;-85
2023/06/06 07:48:14;;;;;;;10.60;4.55;;;;;;;;;;4989865;28;20049;-85
2023/06/06 07:50:40;;;;;;;14.05;5.30;;;;;;;;;;4962329;28;20065;-83
2023/06/06 07:53:06;;;;;;;7.45;4.55;;;;;;;;;;5005865;28;20041;-85
2023/06/06 07:55:32;;;;;;;10.18;5.22;;;16.40;99.90;;;;;;4989304;28;20558;-84
2023/06/06 07:57:58;;;;;;;11.82;5.03;;;;;;;;;;4972199;28;20041;-85
2023/06/06 08:00:24;;;;;;;10.43;4.43;;;;;;;;;;4985568;28;20137;-83
2023/06/06 08:02:50;;;;;;;15.23;5.95;;;16.60;99.90;;;;;;4990704;28;20117;-83
2023/06/06 08:05:19;;;;;;;9.15;5.35;;;;;;;;;;5007914;28;20048;-85
2023/06/06 08:07:45;;;;;;;10.95;4.70;;;;;;;;;;4970677;28;20052;-86
2023/06/06 08:10:11;;;;;;;9.65;4.75;;;16.40;99.90;;;;;;4985853;28;20049;-83
2023/06/06 08:12:37;;;;;;;8.98;4.53;;;16.50;99.90;;;;;;5003355;28;20038;-84
2023/06/06 08:15:07;;;;;;;7.53;4.18;;;16.80;99.90;;;;;;4966966;28;20145;-86
2023/06/06 08:17:33;;;;;;;8.75;4.65;;;;;;;;;;4988883;28;20407;-83
2023/06/06 08:19:59;;;;;;;9.60;4.88;;;;;;;;;;4970244;28;20045;-83
2023/06/06 08:22:29;;;;;;;11.20;4.60;;;;;;;;;;4981800;28;20473;-85
2023/06/06 08:24:55;;;;;;;9.77;4.45;;;;;;;;;;4972463;28;20096;-83
2023/06/06 08:27:20;;;;;;;8.55;4.75;;;16.70;99.90;;;;;;4972301;28;20049;-84
2023/06/06 08:29:46;;;;;;;8.77;4.22;;;;;;;;;;4988359;28;20068;-84
2023/06/06 08:32:12;;;;;;;11.27;4.88;;;;;;;;;;5002545;28;20042;-83
2023/06/06 08:34:39;;;;;;;7.88;4.45;;;;;;;;;;5006702;28;20046;-85
2023/06/06 08:37:04;;;;;;;11.38;4.07;;;16.80;99.90;;;;;;4998710;28;20062;-83
2023/06/06 08:39:30;;;;;;;11.60;4.18;;;;;;;;;;4972649;28;20111;-85
2023/06/06 08:41:56;;;;;;;12.05;4.28;;;;;;;;;;4972679;28;20046;-83
2023/06/06 08:44:23;;;;;;;8.95;4.00;;;16.60;99.90;;;;;;4988252;28;20042;-83
2023/06/06 08:46:51;;;;;;;11.48;5.63;;;17.00;99.90;;;;;;4984014;28;20039;-86
2023/06/06 08:49:20;;;;;;;12.45;4.38;;;;;;;;;;4998133;28;20488;-83
2023/06/06 08:51:50;;;;;;;10.55;4.30;;;16.90;99.90;;;;;;4996793;28;20073;-84
2023/06/06 08:54:19;;;;;;;10.45;3.95;;;16.90;99.90;;;;;;4971345;28;20087;-84
2023/06/06 08:56:45;;;;;;;8.00;4.18;;;;;;;;;;4977075;28;20076;-85
2023/06/06 08:59:11;;;;;;;9.10;3.47;;;;;;;;;;4988858;28;20057;-84
2023/06/06 09:01:38;;;;;;;12.52;4.80;;;17.10;99.90;;;;;;4988313;28;20044;-83
2023/06/06 09:04:04;;;;;;;10.13;3.83;;;;;;;;;;4968991;28;20455;-83
2023/06/06 09:06:31;;;;;;;11.15;4.50;;;17.30;99.90;;;;;;4970874;28;20038;-86
2023/06/06 09:08:58;;;;;;;11.02;4.50;;;;;;;;;;5006806;28;20441;-84
2023/06/06 09:11:24;;;;;;;12.05;5.22;;;17.20;99.90;;;;;;4958998;28;20054;-84
2023/06/06 09:13:50;;;;;;;6.80;4.35;;;;;;;;;;4972241;28;20041;-84
2023/06/06 09:16:17;;;;;;;12.40;4.45;;;17.40;99.90;;;;;;4988794;28;20052;-83
2023/06/06 09:18:43;;;;;;;11.80;4.88;;;;;;;;;;5006561;28;20049;-83
2023/06/06 09:21:10;;;;;;;11.68;5.30;;;;;;;;;;4968665;28;20369;-84
2023/06/06 09:23:36;;;;;;;12.77;5.22;;;;;;;;;;4983730;28;20046;-84
2023/06/06 09:26:01;;;;;;;13.05;5.22;;;17.60;99.90;;;;;;5006477;28;20041;-83
2023/06/06 09:28:40;;;;;;;10.55;5.35;;;17.50;99.90;;;;;;4972162;28;20419;-85
2023/06/06 09:31:26;;;;;;;10.88;5.78;;;17.60;99.90;;;;;;4983953;28;20054;-86
2023/06/06 09:33:53;;;;;;;10.82;5.25;;;17.70;99.90;;;;;;5011207;28;20057;-84
2023/06/06 09:36:28;;;;;;;10.63;5.35;;;17.70;99.90;;;;;;4975670;28;20062;-83
2023/06/06 09:39:20;;;;;;;10.90;5.38;;;17.90;99.90;;;;;;4972828;28;20125;-84
2023/06/06 09:41:47;;;;;;;11.60;5.43;;;17.90;99.90;;;;;;4970054;28;20058;-83
2023/06/06 09:44:23;;;;;;;10.95;5.25;;;17.70;99.90;;;;;;4985658;28;20046;-84
2023/06/06 09:47:00;;;;;;;8.52;5.20;;;18.00;99.90;;;;;;4984075;28;20144;-83
2023/06/06 09:49:34;;;;;;;9.25;4.93;;;17.90;99.90;;;;;;4986391;28;20046;-85
2023/06/06 09:52:00;;;;;;;10.80;5.28;;;18.00;99.90;;;;;;4988867;28;20034;-84
2023/06/06 09:54:26;;;;;;;11.80;5.95;;;;;;;;;;4988838;28;20558;-84
2023/06/06 09:56:53;;;;;;;11.63;5.50;;;18.00;99.90;;;;;;4972367;28;20041;-83
2023/06/06 09:59:24;;;;;;;9.95;5.07;;;18.10;99.90;;;;;;4988554;28;20097;-83
2023/06/06 10:02:02;;;;;;;13.82;5.22;;;18.40;99.90;;;;;;4979151;28;20052;-85
2023/06/06 10:04:27;;;;;;;15.38;5.85;;;18.10;99.90;;;;;;4972312;28;20038;-83
2023/06/06 10:06:54;;;;;;;12.27;5.75;;;18.30;99.90;;;;;;4972218;28;20125;-85
2023/06/06 10:09:21;;;;;;;16.42;5.80;;;18.20;99.90;;;;;;4963639;28;20046;-84
2023/06/06 10:11:47;;;;;;;10.82;5.53;;;;;;;;;;4988394;28;20380;-87
2023/06/06 10:14:15;;;;;;;11.95;5.80;;;18.30;99.90;;;;;;4972132;28;20042;-84
2023/06/06 10:16:41;;;;;;;9.38;5.38;;;18.30;99.90;;;;;;4970955;28;20077;-84
2023/06/06 10:19:10;;;;;;;11.57;6.75;;;18.30;99.90;;;;;;4972277;28;20085;-83
2023/06/06 10:21:37;;;;;;;10.57;6.97;;;18.40;99.90;;;;;;4985111;28;20050;-84
2023/06/06 10:24:03;;;;;;;12.65;5.72;;;18.40;99.90;;;;;;4977459;28;20042;-84
2023/06/06 10:26:51;;;;;;;15.15;5.93;;;18.60;99.90;;;;;;4972410;28;20122;-85
2023/06/06 10:29:36;;;;;;;9.68;5.47;;;18.30;99.90;;;;;;4972469;28;20046;-84
2023/06/06 10:32:14;;;;;;;12.63;6.32;;;18.50;99.90;;;;;;4989642;28;20057;-87
2023/06/06 10:34:43;;;;;;;9.77;5.93;;;18.60;99.90;;;;;;4988125;28;20053;-84
2023/06/06 10:37:25;;;;;;;12.00;5.85;;;18.50;99.90;;;;;;4985236;28;20062;-84
2023/06/06 10:40:03;;;;;;;16.25;5.65;;;18.60;99.90;;;;;;4988242;28;20145;-83
2023/06/06 10:42:39;;;;;;;8.00;5.95;;;18.70;99.90;;;;;;4987479;28;20054;-84
2023/06/06 10:45:07;;;;;;;11.80;5.25;;;18.90;99.90;;;;;;4970945;28;20053;-83
2023/06/06 10:47:35;;;;;;;10.95;5.85;;;18.80;99.90;;;;;;4969963;28;20053;-86
2023/06/06 10:50:13;;;;;;;12.25;5.80;;;19.00;99.90;;;;;;4981183;28;20512;-86
2023/06/06 10:53:01;;;;;;;13.48;5.50;;;18.80;99.90;;;;;;4980607;28;20039;-82
2023/06/06 10:55:28;;;;;;;10.38;6.22;;;;;;;;;;4962037;28;20130;-82
2023/06/06 10:57:54;;;;;;;10.77;5.70;;;;;;;;;;4986380;28;20046;-83
2023/06/06 11:00:25;;;;;;;9.55;6.78;;;18.80;99.90;;;;;;4965690;28;20065;-83
2023/06/06 11:02:52;;;;;;;10.38;5.10;;;18.90;99.90;;;;;;4980866;28;20049;-82
2023/06/06 11:05:21;;;;;;;8.55;5.32;;;;;;;;;;4968218;28;20046;-84
2023/06/06 11:07:49;;;;;;;10.15;6.20;;;19.00;99.90;;;;;;4970104;28;20046;-83
2023/06/06 11:10:20;;;;;;;13.30;5.38;;;19.00;99.90;;;;;;4985221;28;20054;-82
2023/06/06 11:12:48;;;;;;;8.63;6.03;;;19.10;99.90;;;;;;4973978;28;20570;-82
2023/06/06 11:15:32;;;;;;;11.20;5.78;;;19.10;99.90;;;;;;4966413;28;20042;-82
2023/06/06 11:18:03;;;;;;;9.45;5.65;;;19.20;99.90;;;;;;4986184;28;20049;-85
2023/06/06 11:20:38;;;;;;;11.07;5.40;;;19.30;99.90;;;;;;4971811;28;20463;-84
2023/06/06 11:23:05;;;;;;;8.35;5.22;;;;;;;;;;4970359;28;20061;-86
2023/06/06 11:25:37;;;;;;;10.00;5.97;;;19.10;99.90;;;;;;4982148;28;20045;-83
2023/06/06 11:28:06;;;;;;;10.07;5.75;;;19.30;99.90;;;;;;4980686;28;20464;-84
2023/06/06 11:30:32;;;;;;;13.68;5.68;;;19.50;99.90;;;;;;4975670;28;20258;-83
2023/06/06 11:32:59;;;;;;;11.77;6.32;;;19.40;99.90;;;;;;4984316;28;20038;-82
2023/06/06 11:35:28;;;;;;;12.93;6.47;;;;;;;;;;4982259;28;20042;-84
2023/06/06 11:37:53;;;;;;;8.75;5.47;;;19.40;99.90;;;;;;4981779;28;20061;-83
2023/06/06 11:40:20;;;;;;;11.27;6.57;;;;;;;;;;4966189;28;20412;-82
2023/06/06 11:42:46;;;;;;;9.77;5.53;;;;;;;;;;4986542;28;20495;-83
2023/06/06 11:45:16;;;;;;;10.05;6.45;;;19.40;99.90;;;;;;4973862;28;20057;-83
2023/06/06 11:47:42;;;;;;;10.43;5.60;;;19.50;99.90;;;;;;4969516;28;20042;-84
2023/06/06 11:50:08;;;;;;;12.52;6.07;;;;;;;;;;4984362;28;20107;-85
2023/06/06 11:52:50;;;;;;;11.85;6.28;;;19.30;99.90;;;;;;4989448;28;20124;-85
2023/06/06 11:55:17;;;;;;;10.68;6.32;;;19.30;99.90;;;;;;4966713;28;20042;-84
2023/06/06 11:57:43;;;;;;;9.82;6.03;;;;;;;;;;4982925;28;20542;-85
2023/06/06 12:00:11;;;;;;;10.35;7.10;;;19.40;99.90;;;;;;4982604;28;20217;-85
2023/06/06 12:02:37;;;;;;;13.15;6.95;;;19.40;99.90;;;;;;4983648;28;20702;-85
2023/06/06 12:05:04;;;;;;;9.65;6.03;;;19.60;99.90;;;;;;4969291;28;20065;-85
2023/06/06 12:07:30;;;;;;;14.95;6.68;;;19.40;99.90;;;;;;4970991;28;20522;-84
2023/06/06 12:09:59;;;;;;;14.15;6.28;;;;;;;;;;4986805;28;20081;-86
2023/06/06 12:12:25;;;;;;;12.55;6.65;;;;;;;;;;4970376;28;20045;-84
2023/06/06 12:14:59;;;;;;;18.40;7.57;;;19.20;99.90;;;;;;4986522;28;20050;-84
2023/06/06 12:17:29;;;;;;;18.92;7.93;;;19.30;99.90;;;;;;4975261;28;20084;-84
2023/06/06 12:19:55;;;;;;;12.80;7.90;;;19.40;99.90;;;;;;4980072;28;20038;-85
2023/06/06 12:22:35;;;;;;;10.23;6.82;;;19.40;99.90;;;;;;4978377;28;20053;-85
2023/06/06 12:25:02;;;;;;;25.17;8.20;;;;;;;;;;4997004;28;20101;-84
2023/06/06 12:27:36;;;;;;;9.55;5.88;;;19.40;99.90;;;;;;4996464;28;20538;-85
2023/06/06 12:30:04;;;;;;;10.45;5.28;;;19.50;99.90;;;;;;4980554;28;20046;-85
2023/06/06 12:32:31;;;;;;;12.02;5.78;;;;;;;;;;4979486;28;20046;-86
2023/06/06 12:35:03;;;;;;;9.20;5.57;;;19.70;99.90;;;;;;4979706;28;20629;-84
2023/06/06 12:37:38;;;;;;;10.43;5.25;;;19.40;99.90;;;;;;4985610;28;20058;-86
2023/06/06 12:40:33;;;;;;;9.13;5.00;;;19.40;99.90;;;;;;4997657;28;20042;-84
2023/06/06 12:43:04;;;;;;;8.88;5.40;;;19.40;99.90;;;;;;4996687;28;20682;-84
2023/06/06 12:45:34;;;;;;;12.10;4.88;;;19.10;99.90;;;;;;4996602;28;20038;-84
2023/06/06 12:48:00;;;;;;;16.17;6.28;;;;;;;;;;4980370;28;20096;-84
2023/06/06 12:50:26;;;;;;;17.60;6.78;;;;;;;;;;5008206;28;20045;-85
2023/06/06 12:52:53;;;;;;;10.30;5.30;;;;;;;;;;5015433;28;20037;-86
2023/06/06 12:55:19;;;;;;;14.57;5.63;;;;;;;;;;4979485;28;20065;-84
2023/06/06 12:57:45;;;;;;;10.45;5.25;;;;;;;;;;4978800;28;20038;-84
2023/06/06 13:00:13;;;;;;;21.02;6.05;;;19.40;99.90;;;;;;4976751;28;20125;-84
2023/06/06 13:02:39;;;;;;;10.13;5.38;;;;;;;;;;4977842;28;20527;-85
2023/06/06 13:05:06;;;;;;;10.93;5.43;;;19.30;99.90;;;;;;5001458;28;20057;-84
2023/06/06 13:07:32;;;;;;;12.07;5.47;;;;;;;;;;5005381;28;20070;-84
2023/06/06 13:09:59;;;;;;;12.93;6.07;;;;;;;;;;4999056;28;20109;-84
2023/06/06 13:12:26;;;;;;;13.75;5.75;;;;;;;;;;4981237;28;20124;-85
2023/06/06 13:14:55;;;;;;;10.13;5.63;;;;;;;;;;4997704;28;20038;-85
2023/06/06 13:17:21;;;;;;;9.65;5.32;;;;;;;;;;4997304;28;20038;-85
2023/06/06 13:19:48;;;;;;;15.25;5.88;;;;;;;;;;4981341;28;20063;-84
2023/06/06 13:22:14;;;;;;;14.73;6.20;;;;;;;;;;4981096;28;20046;-84
2023/06/06 13:24:41;;;;;;;10.15;5.50;;;;;;;;;;4981735;28;20053;-84
2023/06/06 13:27:07;;;;;;;14.40;6.25;;;;;;;;;;4981114;28;20534;-84
2023/06/06 13:29:35;;;;;;;14.55;6.80;;;;;;;;;;4997166;28;20121;-84
2023/06/06 13:32:02;;;;;;;11.38;5.72;;;;;;;;;;4996990;28;20038;-84
2023/06/06 13:34:28;;;;;;;13.63;6.00;;;;;;;;;;4996865;28;20030;-85
2023/06/06 13:36:54;;;;;;;10.65;4.63;;;;;;;;;;4999429;28;20069;-84
2023/06/06 13:39:20;;;;;;;15.02;5.55;;;;;;;;;;4991508;28;20504;-84
2023/06/06 13:41:47;;;;;;;13.82;6.20;;;;;;;;;;4974888;28;20116;-87
2023/06/06 13:44:21;;;;;;;11.55;5.40;;;19.60;99.90;;;;;;5000502;28;20049;-85
2023/06/06 13:46:47;;;;;;;16.70;5.25;;;;;;;;;;4966714;28;20061;-86
2023/06/06 13:49:16;;;;;;;12.55;4.82;;;;;;;;;;4965123;28;20050;-85
2023/06/06 13:51:42;;;;;;;13.18;4.90;;;;;;;;;;4992322;28;20056;-84
2023/06/06 13:54:09;;;;;;;14.93;5.38;;;;;;;;;;4993492;28;20049;-85